<?xml version="1.0" encoding="UTF-8"?>
<gpx version="1.1" creator="https://www.youtrack.es" xsi:schemaLocation="http://www.topografix.com/GPX/1/1 http://www.topografix.com/GPX/1/1/gpx.xsd http://www.garmin.com/xmlschemas/GpxExtensions/v3 http://www.garmin.com/xmlschemas/GpxExtensionsv3.xsd http://www.garmin.com/xmlschemas/TrackPointExtension/v1 http://www.garmin.com/xmlschemas/TrackPointExtensionv1.xsd" xmlns:gpxtpx="http://www.garmin.com/xmlschemas/TrackPointExtension/v1" xmlns:gpxx="http://www.garmin.com/xmlschemas/GpxExtensions/v3" xmlns:xsi="http://www.w3.org/2001/XMLSchema-instance">
  <metadata>
    <link href="https://www.youtrack.es">
      <text>YouTrack.es</text>
    </link>
    <time>2026-05-09T00:26:52Z</time>
  </metadata>
  <trk>
    <src>https://www.youtrack.es</src>
    <link href="https://www.youtrack.es/ruta/31328-ermita-navahonda">
      <text>YouTrack.es</text>
    </link>
    <trkseg>
      <trkpt lat="40.443906" lon="-4.245384">
        <ele>840.879</ele>
        <time>2021-03-03T08:28:55Z</time>
      </trkpt>
      <trkpt lat="40.444295" lon="-4.245333">
        <ele>841.305</ele>
        <time>2021-03-03T08:33:11Z</time>
      </trkpt>
      <trkpt lat="40.444346" lon="-4.245130">
        <ele>839.825</ele>
        <time>2021-03-03T08:33:35Z</time>
      </trkpt>
      <trkpt lat="40.444351" lon="-4.245477">
        <ele>842.808</ele>
        <time>2021-03-03T08:34:23Z</time>
      </trkpt>
      <trkpt lat="40.444613" lon="-4.245530">
        <ele>844.753</ele>
        <time>2021-03-03T08:34:50Z</time>
      </trkpt>
      <trkpt lat="40.445333" lon="-4.244784">
        <ele>843.714</ele>
        <time>2021-03-03T08:36:20Z</time>
      </trkpt>
      <trkpt lat="40.445799" lon="-4.244916">
        <ele>847.197</ele>
        <time>2021-03-03T08:37:29Z</time>
      </trkpt>
      <trkpt lat="40.446303" lon="-4.244748">
        <ele>851.211</ele>
        <time>2021-03-03T08:38:29Z</time>
      </trkpt>
      <trkpt lat="40.446451" lon="-4.246192">
        <ele>864.336</ele>
        <time>2021-03-03T08:40:59Z</time>
      </trkpt>
      <trkpt lat="40.446647" lon="-4.246546">
        <ele>869.480</ele>
        <time>2021-03-03T08:41:41Z</time>
      </trkpt>
      <trkpt lat="40.446988" lon="-4.246683">
        <ele>871.871</ele>
        <time>2021-03-03T08:42:17Z</time>
      </trkpt>
      <trkpt lat="40.447455" lon="-4.246736">
        <ele>875.831</ele>
        <time>2021-03-03T08:43:08Z</time>
      </trkpt>
      <trkpt lat="40.448669" lon="-4.245966">
        <ele>893.827</ele>
        <time>2021-03-03T08:45:56Z</time>
      </trkpt>
      <trkpt lat="40.449559" lon="-4.245736">
        <ele>899.368</ele>
        <time>2021-03-03T08:47:26Z</time>
      </trkpt>
      <trkpt lat="40.450249" lon="-4.246109">
        <ele>902.914</ele>
        <time>2021-03-03T08:48:38Z</time>
      </trkpt>
      <trkpt lat="40.450744" lon="-4.246026">
        <ele>904.708</ele>
        <time>2021-03-03T08:49:23Z</time>
      </trkpt>
      <trkpt lat="40.451755" lon="-4.246596">
        <ele>910.928</ele>
        <time>2021-03-03T08:51:26Z</time>
      </trkpt>
      <trkpt lat="40.452560" lon="-4.246743">
        <ele>915.459</ele>
        <time>2021-03-03T08:53:23Z</time>
      </trkpt>
      <trkpt lat="40.453904" lon="-4.247244">
        <ele>921.872</ele>
        <time>2021-03-03T08:56:17Z</time>
      </trkpt>
      <trkpt lat="40.454439" lon="-4.247084">
        <ele>931.926</ele>
        <time>2021-03-03T08:57:44Z</time>
      </trkpt>
      <trkpt lat="40.455712" lon="-4.246123">
        <ele>941.121</ele>
        <time>2021-03-03T09:00:23Z</time>
      </trkpt>
      <trkpt lat="40.456351" lon="-4.246367">
        <ele>948.825</ele>
        <time>2021-03-03T09:01:35Z</time>
      </trkpt>
      <trkpt lat="40.458205" lon="-4.246574">
        <ele>964.386</ele>
        <time>2021-03-03T09:04:41Z</time>
      </trkpt>
      <trkpt lat="40.459203" lon="-4.246656">
        <ele>974.486</ele>
        <time>2021-03-03T09:06:29Z</time>
      </trkpt>
      <trkpt lat="40.459863" lon="-4.246531">
        <ele>982.679</ele>
        <time>2021-03-03T09:07:44Z</time>
      </trkpt>
      <trkpt lat="40.460241" lon="-4.246715">
        <ele>983.505</ele>
        <time>2021-03-03T09:08:29Z</time>
      </trkpt>
      <trkpt lat="40.463491" lon="-4.246860">
        <ele>1024.125</ele>
        <time>2021-03-03T09:14:53Z</time>
      </trkpt>
      <trkpt lat="40.464407" lon="-4.247212">
        <ele>1031.908</ele>
        <time>2021-03-03T09:18:05Z</time>
      </trkpt>
      <trkpt lat="40.466138" lon="-4.246689">
        <ele>1014.243</ele>
        <time>2021-03-03T09:21:32Z</time>
      </trkpt>
      <trkpt lat="40.467291" lon="-4.247050">
        <ele>1012.624</ele>
        <time>2021-03-03T09:23:14Z</time>
      </trkpt>
      <trkpt lat="40.468195" lon="-4.247054">
        <ele>1012.047</ele>
        <time>2021-03-03T09:24:38Z</time>
      </trkpt>
      <trkpt lat="40.469391" lon="-4.246426">
        <ele>1010.391</ele>
        <time>2021-03-03T09:26:35Z</time>
      </trkpt>
      <trkpt lat="40.470133" lon="-4.245769">
        <ele>992.516</ele>
        <time>2021-03-03T09:27:53Z</time>
      </trkpt>
      <trkpt lat="40.471131" lon="-4.244454">
        <ele>978.230</ele>
        <time>2021-03-03T09:30:17Z</time>
      </trkpt>
      <trkpt lat="40.471716" lon="-4.244992">
        <ele>964.731</ele>
        <time>2021-03-03T09:31:32Z</time>
      </trkpt>
      <trkpt lat="40.472806" lon="-4.244574">
        <ele>961.811</ele>
        <time>2021-03-03T09:33:02Z</time>
      </trkpt>
      <trkpt lat="40.475140" lon="-4.244526">
        <ele>946.777</ele>
        <time>2021-03-03T09:36:05Z</time>
      </trkpt>
      <trkpt lat="40.475544" lon="-4.244375">
        <ele>944.661</ele>
        <time>2021-03-03T09:36:38Z</time>
      </trkpt>
      <trkpt lat="40.476923" lon="-4.242977">
        <ele>932.527</ele>
        <time>2021-03-03T09:38:56Z</time>
      </trkpt>
      <trkpt lat="40.477846" lon="-4.242334">
        <ele>926.608</ele>
        <time>2021-03-03T09:40:26Z</time>
      </trkpt>
      <trkpt lat="40.478110" lon="-4.241798">
        <ele>924.243</ele>
        <time>2021-03-03T09:42:08Z</time>
      </trkpt>
      <trkpt lat="40.478643" lon="-4.241521">
        <ele>919.754</ele>
        <time>2021-03-03T09:42:56Z</time>
      </trkpt>
      <trkpt lat="40.478801" lon="-4.240664">
        <ele>924.657</ele>
        <time>2021-03-03T09:44:53Z</time>
      </trkpt>
      <trkpt lat="40.478620" lon="-4.240001">
        <ele>932.651</ele>
        <time>2021-03-03T09:46:08Z</time>
      </trkpt>
      <trkpt lat="40.478523" lon="-4.238420">
        <ele>946.896</ele>
        <time>2021-03-03T09:48:35Z</time>
      </trkpt>
      <trkpt lat="40.478017" lon="-4.238254">
        <ele>963.010</ele>
        <time>2021-03-03T09:50:20Z</time>
      </trkpt>
      <trkpt lat="40.477794" lon="-4.237938">
        <ele>972.771</ele>
        <time>2021-03-03T09:51:50Z</time>
      </trkpt>
      <trkpt lat="40.477380" lon="-4.236034">
        <ele>997.181</ele>
        <time>2021-03-03T09:55:14Z</time>
      </trkpt>
      <trkpt lat="40.477418" lon="-4.235494">
        <ele>997.927</ele>
        <time>2021-03-03T09:55:56Z</time>
      </trkpt>
      <trkpt lat="40.477153" lon="-4.235002">
        <ele>1001.368</ele>
        <time>2021-03-03T09:56:47Z</time>
      </trkpt>
      <trkpt lat="40.477039" lon="-4.234025">
        <ele>1003.714</ele>
        <time>2021-03-03T09:58:17Z</time>
      </trkpt>
      <trkpt lat="40.476833" lon="-4.233822">
        <ele>1009.308</ele>
        <time>2021-03-03T09:59:47Z</time>
      </trkpt>
      <trkpt lat="40.476520" lon="-4.233850">
        <ele>1021.778</ele>
        <time>2021-03-03T10:01:05Z</time>
      </trkpt>
      <trkpt lat="40.475589" lon="-4.234446">
        <ele>1047.429</ele>
        <time>2021-03-03T10:04:38Z</time>
      </trkpt>
      <trkpt lat="40.475929" lon="-4.235359">
        <ele>1060.232</ele>
        <time>2021-03-03T10:06:59Z</time>
      </trkpt>
      <trkpt lat="40.475089" lon="-4.237023">
        <ele>1074.416</ele>
        <time>2021-03-03T10:12:05Z</time>
      </trkpt>
      <trkpt lat="40.475307" lon="-4.237599">
        <ele>1093.141</ele>
        <time>2021-03-03T10:14:32Z</time>
      </trkpt>
      <trkpt lat="40.474627" lon="-4.238801">
        <ele>1117.025</ele>
        <time>2021-03-03T10:18:50Z</time>
      </trkpt>
      <trkpt lat="40.474580" lon="-4.239155">
        <ele>1132.026</ele>
        <time>2021-03-03T10:21:29Z</time>
      </trkpt>
      <trkpt lat="40.474294" lon="-4.239176">
        <ele>1138.076</ele>
        <time>2021-03-03T10:22:35Z</time>
      </trkpt>
      <trkpt lat="40.474251" lon="-4.239609">
        <ele>1162.834</ele>
        <time>2021-03-03T10:28:05Z</time>
      </trkpt>
      <trkpt lat="40.473930" lon="-4.239780">
        <ele>1176.155</ele>
        <time>2021-03-03T10:35:56Z</time>
      </trkpt>
      <trkpt lat="40.474151" lon="-4.239632">
        <ele>1168.110</ele>
        <time>2021-03-03T10:39:20Z</time>
      </trkpt>
      <trkpt lat="40.474076" lon="-4.239499">
        <ele>1163.108</ele>
        <time>2021-03-03T10:39:50Z</time>
      </trkpt>
      <trkpt lat="40.474253" lon="-4.239479">
        <ele>1153.659</ele>
        <time>2021-03-03T10:44:14Z</time>
      </trkpt>
      <trkpt lat="40.474298" lon="-4.239129">
        <ele>1137.550</ele>
        <time>2021-03-03T10:48:14Z</time>
      </trkpt>
      <trkpt lat="40.474595" lon="-4.239144">
        <ele>1131.483</ele>
        <time>2021-03-03T10:49:05Z</time>
      </trkpt>
      <trkpt lat="40.474640" lon="-4.238749">
        <ele>1115.837</ele>
        <time>2021-03-03T11:02:53Z</time>
      </trkpt>
      <trkpt lat="40.474898" lon="-4.238508">
        <ele>1108.872</ele>
        <time>2021-03-03T11:05:41Z</time>
      </trkpt>
      <trkpt lat="40.475325" lon="-4.237661">
        <ele>1092.366</ele>
        <time>2021-03-03T11:07:50Z</time>
      </trkpt>
      <trkpt lat="40.475108" lon="-4.237040">
        <ele>1072.777</ele>
        <time>2021-03-03T11:09:38Z</time>
      </trkpt>
      <trkpt lat="40.475944" lon="-4.235334">
        <ele>1056.117</ele>
        <time>2021-03-03T11:13:26Z</time>
      </trkpt>
      <trkpt lat="40.475598" lon="-4.234524">
        <ele>1043.871</ele>
        <time>2021-03-03T11:14:50Z</time>
      </trkpt>
      <trkpt lat="40.475655" lon="-4.234169">
        <ele>1043.741</ele>
        <time>2021-03-03T11:15:23Z</time>
      </trkpt>
      <trkpt lat="40.475426" lon="-4.234136">
        <ele>1040.415</ele>
        <time>2021-03-03T11:17:35Z</time>
      </trkpt>
      <trkpt lat="40.475182" lon="-4.233466">
        <ele>1016.908</ele>
        <time>2021-03-03T11:23:14Z</time>
      </trkpt>
      <trkpt lat="40.474655" lon="-4.233362">
        <ele>998.193</ele>
        <time>2021-03-03T11:24:56Z</time>
      </trkpt>
      <trkpt lat="40.474559" lon="-4.233100">
        <ele>993.364</ele>
        <time>2021-03-03T11:25:32Z</time>
      </trkpt>
      <trkpt lat="40.473656" lon="-4.233520">
        <ele>972.677</ele>
        <time>2021-03-03T11:30:11Z</time>
      </trkpt>
      <trkpt lat="40.473320" lon="-4.232921">
        <ele>960.221</ele>
        <time>2021-03-03T11:31:17Z</time>
      </trkpt>
      <trkpt lat="40.473378" lon="-4.232536">
        <ele>958.716</ele>
        <time>2021-03-03T11:31:44Z</time>
      </trkpt>
      <trkpt lat="40.472929" lon="-4.231691">
        <ele>959.990</ele>
        <time>2021-03-03T11:32:44Z</time>
      </trkpt>
      <trkpt lat="40.472732" lon="-4.231627">
        <ele>960.451</ele>
        <time>2021-03-03T11:33:20Z</time>
      </trkpt>
      <trkpt lat="40.472424" lon="-4.231955">
        <ele>956.381</ele>
        <time>2021-03-03T11:36:17Z</time>
      </trkpt>
      <trkpt lat="40.470762" lon="-4.232649">
        <ele>929.543</ele>
        <time>2021-03-03T11:39:08Z</time>
      </trkpt>
      <trkpt lat="40.470139" lon="-4.233111">
        <ele>915.364</ele>
        <time>2021-03-03T11:40:08Z</time>
      </trkpt>
      <trkpt lat="40.470173" lon="-4.233303">
        <ele>912.610</ele>
        <time>2021-03-03T11:40:26Z</time>
      </trkpt>
      <trkpt lat="40.470987" lon="-4.233707">
        <ele>908.508</ele>
        <time>2021-03-03T11:41:41Z</time>
      </trkpt>
      <trkpt lat="40.470595" lon="-4.234268">
        <ele>906.390</ele>
        <time>2021-03-03T11:42:29Z</time>
      </trkpt>
      <trkpt lat="40.469959" lon="-4.234445">
        <ele>900.191</ele>
        <time>2021-03-03T11:43:35Z</time>
      </trkpt>
      <trkpt lat="40.469253" lon="-4.234907">
        <ele>894.124</ele>
        <time>2021-03-03T11:44:56Z</time>
      </trkpt>
      <trkpt lat="40.468511" lon="-4.235107">
        <ele>887.188</ele>
        <time>2021-03-03T11:46:14Z</time>
      </trkpt>
      <trkpt lat="40.467472" lon="-4.234974">
        <ele>880.213</ele>
        <time>2021-03-03T11:47:53Z</time>
      </trkpt>
      <trkpt lat="40.467269" lon="-4.234500">
        <ele>877.237</ele>
        <time>2021-03-03T11:48:32Z</time>
      </trkpt>
      <trkpt lat="40.466363" lon="-4.234777">
        <ele>867.618</ele>
        <time>2021-03-03T11:50:20Z</time>
      </trkpt>
      <trkpt lat="40.465681" lon="-4.234011">
        <ele>860.638</ele>
        <time>2021-03-03T11:51:38Z</time>
      </trkpt>
      <trkpt lat="40.464455" lon="-4.233654">
        <ele>861.727</ele>
        <time>2021-03-03T11:53:17Z</time>
      </trkpt>
      <trkpt lat="40.463868" lon="-4.233767">
        <ele>858.268</ele>
        <time>2021-03-03T11:54:08Z</time>
      </trkpt>
      <trkpt lat="40.463577" lon="-4.234417">
        <ele>851.114</ele>
        <time>2021-03-03T11:55:44Z</time>
      </trkpt>
      <trkpt lat="40.462862" lon="-4.234325">
        <ele>845.908</ele>
        <time>2021-03-03T11:56:32Z</time>
      </trkpt>
      <trkpt lat="40.462552" lon="-4.234610">
        <ele>841.768</ele>
        <time>2021-03-03T11:56:59Z</time>
      </trkpt>
      <trkpt lat="40.462397" lon="-4.235036">
        <ele>840.989</ele>
        <time>2021-03-03T11:57:29Z</time>
      </trkpt>
      <trkpt lat="40.461942" lon="-4.235263">
        <ele>837.882</ele>
        <time>2021-03-03T11:58:08Z</time>
      </trkpt>
      <trkpt lat="40.462072" lon="-4.235549">
        <ele>839.996</ele>
        <time>2021-03-03T11:58:35Z</time>
      </trkpt>
      <trkpt lat="40.461508" lon="-4.236053">
        <ele>840.231</ele>
        <time>2021-03-03T11:59:29Z</time>
      </trkpt>
      <trkpt lat="40.460368" lon="-4.236405">
        <ele>840.955</ele>
        <time>2021-03-03T12:01:02Z</time>
      </trkpt>
      <trkpt lat="40.460154" lon="-4.236962">
        <ele>842.296</ele>
        <time>2021-03-03T12:03:08Z</time>
      </trkpt>
      <trkpt lat="40.459510" lon="-4.236837">
        <ele>839.146</ele>
        <time>2021-03-03T12:04:23Z</time>
      </trkpt>
      <trkpt lat="40.458761" lon="-4.237311">
        <ele>837.125</ele>
        <time>2021-03-03T12:05:26Z</time>
      </trkpt>
      <trkpt lat="40.458415" lon="-4.237337">
        <ele>835.526</ele>
        <time>2021-03-03T12:05:53Z</time>
      </trkpt>
      <trkpt lat="40.457424" lon="-4.237808">
        <ele>832.308</ele>
        <time>2021-03-03T12:07:20Z</time>
      </trkpt>
      <trkpt lat="40.456943" lon="-4.238205">
        <ele>830.908</ele>
        <time>2021-03-03T12:08:05Z</time>
      </trkpt>
      <trkpt lat="40.456354" lon="-4.239111">
        <ele>830.418</ele>
        <time>2021-03-03T12:09:17Z</time>
      </trkpt>
      <trkpt lat="40.455857" lon="-4.239565">
        <ele>832.029</ele>
        <time>2021-03-03T12:10:08Z</time>
      </trkpt>
      <trkpt lat="40.455559" lon="-4.239470">
        <ele>828.992</ele>
        <time>2021-03-03T12:10:35Z</time>
      </trkpt>
      <trkpt lat="40.455147" lon="-4.239634">
        <ele>826.116</ele>
        <time>2021-03-03T12:11:11Z</time>
      </trkpt>
      <trkpt lat="40.454377" lon="-4.239660">
        <ele>822.651</ele>
        <time>2021-03-03T12:12:14Z</time>
      </trkpt>
      <trkpt lat="40.453104" lon="-4.240254">
        <ele>824.235</ele>
        <time>2021-03-03T12:14:02Z</time>
      </trkpt>
      <trkpt lat="40.453014" lon="-4.240880">
        <ele>834.916</ele>
        <time>2021-03-03T12:15:05Z</time>
      </trkpt>
      <trkpt lat="40.453573" lon="-4.241841">
        <ele>848.966</ele>
        <time>2021-03-03T12:16:53Z</time>
      </trkpt>
      <trkpt lat="40.453778" lon="-4.242796">
        <ele>862.376</ele>
        <time>2021-03-03T12:18:17Z</time>
      </trkpt>
      <trkpt lat="40.453894" lon="-4.244355">
        <ele>873.090</ele>
        <time>2021-03-03T12:20:08Z</time>
      </trkpt>
      <trkpt lat="40.453724" lon="-4.246081">
        <ele>891.119</ele>
        <time>2021-03-03T12:22:29Z</time>
      </trkpt>
      <trkpt lat="40.453833" lon="-4.246594">
        <ele>901.208</ele>
        <time>2021-03-03T12:23:26Z</time>
      </trkpt>
      <trkpt lat="40.453696" lon="-4.247111">
        <ele>909.823</ele>
        <time>2021-03-03T12:27:08Z</time>
      </trkpt>
      <trkpt lat="40.451791" lon="-4.246558">
        <ele>901.464</ele>
        <time>2021-03-03T12:29:50Z</time>
      </trkpt>
      <trkpt lat="40.450785" lon="-4.245999">
        <ele>894.977</ele>
        <time>2021-03-03T12:31:20Z</time>
      </trkpt>
      <trkpt lat="40.450317" lon="-4.246081">
        <ele>893.181</ele>
        <time>2021-03-03T12:31:59Z</time>
      </trkpt>
      <trkpt lat="40.449599" lon="-4.245717">
        <ele>888.866</ele>
        <time>2021-03-03T12:33:02Z</time>
      </trkpt>
      <trkpt lat="40.448718" lon="-4.245925">
        <ele>883.020</ele>
        <time>2021-03-03T12:34:17Z</time>
      </trkpt>
      <trkpt lat="40.447414" lon="-4.246675">
        <ele>863.811</ele>
        <time>2021-03-03T12:36:23Z</time>
      </trkpt>
      <trkpt lat="40.446992" lon="-4.246640">
        <ele>860.291</ele>
        <time>2021-03-03T12:36:59Z</time>
      </trkpt>
      <trkpt lat="40.446665" lon="-4.246528">
        <ele>857.843</ele>
        <time>2021-03-03T12:37:29Z</time>
      </trkpt>
      <trkpt lat="40.446468" lon="-4.246149">
        <ele>851.464</ele>
        <time>2021-03-03T12:38:05Z</time>
      </trkpt>
      <trkpt lat="40.446350" lon="-4.244809">
        <ele>839.710</ele>
        <time>2021-03-03T12:39:47Z</time>
      </trkpt>
      <trkpt lat="40.446225" lon="-4.244698">
        <ele>837.808</ele>
        <time>2021-03-03T12:40:02Z</time>
      </trkpt>
      <trkpt lat="40.445797" lon="-4.244843">
        <ele>834.840</ele>
        <time>2021-03-03T12:40:44Z</time>
      </trkpt>
      <trkpt lat="40.445303" lon="-4.244762">
        <ele>831.241</ele>
        <time>2021-03-03T12:41:44Z</time>
      </trkpt>
      <trkpt lat="40.444623" lon="-4.245481">
        <ele>832.244</ele>
        <time>2021-03-03T12:42:59Z</time>
      </trkpt>
      <trkpt lat="40.443928" lon="-4.245356">
        <ele>829.068</ele>
        <time>2021-03-03T12:44:15Z</time>
      </trkpt>
      <trkpt lat="40.443907" lon="-4.245407">
        <ele>831.932</ele>
        <time>2021-02-18T07:08:09Z</time>
      </trkpt>
      <trkpt lat="40.444234" lon="-4.245405">
        <ele>833.492</ele>
        <time>2021-02-18T07:13:25Z</time>
      </trkpt>
      <trkpt lat="40.444394" lon="-4.245106">
        <ele>831.211</ele>
        <time>2021-02-18T07:14:07Z</time>
      </trkpt>
      <trkpt lat="40.444276" lon="-4.245488">
        <ele>834.908</ele>
        <time>2021-02-18T07:14:43Z</time>
      </trkpt>
      <trkpt lat="40.444640" lon="-4.245567">
        <ele>838.669</ele>
        <time>2021-02-18T07:15:19Z</time>
      </trkpt>
      <trkpt lat="40.445324" lon="-4.244829">
        <ele>835.989</ele>
        <time>2021-02-18T07:17:25Z</time>
      </trkpt>
      <trkpt lat="40.445813" lon="-4.244943">
        <ele>841.013</ele>
        <time>2021-02-18T07:18:46Z</time>
      </trkpt>
      <trkpt lat="40.446258" lon="-4.244793">
        <ele>844.976</ele>
        <time>2021-02-18T07:19:40Z</time>
      </trkpt>
      <trkpt lat="40.446432" lon="-4.246215">
        <ele>857.111</ele>
        <time>2021-02-18T07:22:25Z</time>
      </trkpt>
      <trkpt lat="40.446649" lon="-4.246622">
        <ele>864.184</ele>
        <time>2021-02-18T07:23:19Z</time>
      </trkpt>
      <trkpt lat="40.447373" lon="-4.246799">
        <ele>873.194</ele>
        <time>2021-02-18T07:24:46Z</time>
      </trkpt>
      <trkpt lat="40.448642" lon="-4.246013">
        <ele>890.272</ele>
        <time>2021-02-18T07:27:46Z</time>
      </trkpt>
      <trkpt lat="40.449519" lon="-4.245789">
        <ele>897.059</ele>
        <time>2021-02-18T07:30:34Z</time>
      </trkpt>
      <trkpt lat="40.450190" lon="-4.246176">
        <ele>899.803</ele>
        <time>2021-02-18T07:31:46Z</time>
      </trkpt>
      <trkpt lat="40.450737" lon="-4.246081">
        <ele>899.923</ele>
        <time>2021-02-18T07:32:28Z</time>
      </trkpt>
      <trkpt lat="40.451732" lon="-4.246637">
        <ele>904.508</ele>
        <time>2021-02-18T07:34:13Z</time>
      </trkpt>
      <trkpt lat="40.453157" lon="-4.246974">
        <ele>912.571</ele>
        <time>2021-02-18T07:37:10Z</time>
      </trkpt>
      <trkpt lat="40.453663" lon="-4.247224">
        <ele>919.611</ele>
        <time>2021-02-18T07:38:10Z</time>
      </trkpt>
      <trkpt lat="40.453802" lon="-4.246681">
        <ele>907.495</ele>
        <time>2021-02-18T07:39:01Z</time>
      </trkpt>
      <trkpt lat="40.453642" lon="-4.246088">
        <ele>895.078</ele>
        <time>2021-02-18T07:39:52Z</time>
      </trkpt>
      <trkpt lat="40.453818" lon="-4.244628">
        <ele>880.333</ele>
        <time>2021-02-18T07:41:46Z</time>
      </trkpt>
      <trkpt lat="40.453731" lon="-4.242866">
        <ele>867.516</ele>
        <time>2021-02-18T07:43:58Z</time>
      </trkpt>
      <trkpt lat="40.453530" lon="-4.241955">
        <ele>856.666</ele>
        <time>2021-02-18T07:45:07Z</time>
      </trkpt>
      <trkpt lat="40.452986" lon="-4.241013">
        <ele>840.044</ele>
        <time>2021-02-18T07:46:28Z</time>
      </trkpt>
      <trkpt lat="40.453072" lon="-4.240280">
        <ele>829.168</ele>
        <time>2021-02-18T07:47:25Z</time>
      </trkpt>
      <trkpt lat="40.454367" lon="-4.239747">
        <ele>828.342</ele>
        <time>2021-02-18T07:49:22Z</time>
      </trkpt>
      <trkpt lat="40.455058" lon="-4.239742">
        <ele>832.626</ele>
        <time>2021-02-18T07:50:19Z</time>
      </trkpt>
      <trkpt lat="40.455544" lon="-4.239565">
        <ele>833.808</ele>
        <time>2021-02-18T07:51:01Z</time>
      </trkpt>
      <trkpt lat="40.455859" lon="-4.239654">
        <ele>836.692</ele>
        <time>2021-02-18T07:51:31Z</time>
      </trkpt>
      <trkpt lat="40.457403" lon="-4.237894">
        <ele>836.332</ele>
        <time>2021-02-18T07:54:19Z</time>
      </trkpt>
      <trkpt lat="40.458409" lon="-4.237376">
        <ele>839.226</ele>
        <time>2021-02-18T07:56:13Z</time>
      </trkpt>
      <trkpt lat="40.458778" lon="-4.237392">
        <ele>842.419</ele>
        <time>2021-02-18T07:57:16Z</time>
      </trkpt>
      <trkpt lat="40.459500" lon="-4.236930">
        <ele>843.394</ele>
        <time>2021-02-18T07:58:19Z</time>
      </trkpt>
      <trkpt lat="40.460111" lon="-4.237024">
        <ele>847.397</ele>
        <time>2021-02-18T08:00:04Z</time>
      </trkpt>
      <trkpt lat="40.460363" lon="-4.236449">
        <ele>845.757</ele>
        <time>2021-02-18T08:00:55Z</time>
      </trkpt>
      <trkpt lat="40.461443" lon="-4.236117">
        <ele>845.375</ele>
        <time>2021-02-18T08:02:19Z</time>
      </trkpt>
      <trkpt lat="40.462025" lon="-4.235613">
        <ele>842.751</ele>
        <time>2021-02-18T08:03:16Z</time>
      </trkpt>
      <trkpt lat="40.462556" lon="-4.234613">
        <ele>845.801</ele>
        <time>2021-02-18T08:04:46Z</time>
      </trkpt>
      <trkpt lat="40.462868" lon="-4.234357">
        <ele>852.311</ele>
        <time>2021-02-18T08:05:22Z</time>
      </trkpt>
      <trkpt lat="40.463563" lon="-4.234480">
        <ele>855.508</ele>
        <time>2021-02-18T08:06:34Z</time>
      </trkpt>
      <trkpt lat="40.463833" lon="-4.233818">
        <ele>861.541</ele>
        <time>2021-02-18T08:07:31Z</time>
      </trkpt>
      <trkpt lat="40.464458" lon="-4.233722">
        <ele>862.671</ele>
        <time>2021-02-18T08:08:25Z</time>
      </trkpt>
      <trkpt lat="40.464899" lon="-4.233951">
        <ele>863.415</ele>
        <time>2021-02-18T08:09:04Z</time>
      </trkpt>
      <trkpt lat="40.465635" lon="-4.234076">
        <ele>865.638</ele>
        <time>2021-02-18T08:10:04Z</time>
      </trkpt>
      <trkpt lat="40.466085" lon="-4.234858">
        <ele>871.433</ele>
        <time>2021-02-18T08:11:13Z</time>
      </trkpt>
      <trkpt lat="40.466820" lon="-4.234690">
        <ele>879.486</ele>
        <time>2021-02-18T08:14:43Z</time>
      </trkpt>
      <trkpt lat="40.466891" lon="-4.234841">
        <ele>881.466</ele>
        <time>2021-02-18T08:15:07Z</time>
      </trkpt>
      <trkpt lat="40.466981" lon="-4.234631">
        <ele>880.214</ele>
        <time>2021-02-18T08:15:28Z</time>
      </trkpt>
      <trkpt lat="40.467237" lon="-4.234573">
        <ele>881.064</ele>
        <time>2021-02-18T08:15:49Z</time>
      </trkpt>
      <trkpt lat="40.467448" lon="-4.235036">
        <ele>886.206</ele>
        <time>2021-02-18T08:16:34Z</time>
      </trkpt>
      <trkpt lat="40.468017" lon="-4.235051">
        <ele>889.116</ele>
        <time>2021-02-18T08:17:19Z</time>
      </trkpt>
      <trkpt lat="40.468301" lon="-4.235225">
        <ele>892.208</ele>
        <time>2021-02-18T08:17:46Z</time>
      </trkpt>
      <trkpt lat="40.468930" lon="-4.235101">
        <ele>896.262</ele>
        <time>2021-02-18T08:18:40Z</time>
      </trkpt>
      <trkpt lat="40.469466" lon="-4.234780">
        <ele>897.982</ele>
        <time>2021-02-18T08:19:43Z</time>
      </trkpt>
      <trkpt lat="40.469627" lon="-4.234863">
        <ele>900.856</ele>
        <time>2021-02-18T08:20:01Z</time>
      </trkpt>
      <trkpt lat="40.469933" lon="-4.234525">
        <ele>902.229</ele>
        <time>2021-02-18T08:20:43Z</time>
      </trkpt>
      <trkpt lat="40.470157" lon="-4.234540">
        <ele>905.454</ele>
        <time>2021-02-18T08:21:07Z</time>
      </trkpt>
      <trkpt lat="40.470730" lon="-4.234230">
        <ele>911.337</ele>
        <time>2021-02-18T08:22:04Z</time>
      </trkpt>
      <trkpt lat="40.470974" lon="-4.233729">
        <ele>912.457</ele>
        <time>2021-02-18T08:22:52Z</time>
      </trkpt>
      <trkpt lat="40.470364" lon="-4.233514">
        <ele>911.835</ele>
        <time>2021-02-18T08:24:04Z</time>
      </trkpt>
      <trkpt lat="40.470107" lon="-4.233184">
        <ele>916.812</ele>
        <time>2021-02-18T08:24:49Z</time>
      </trkpt>
      <trkpt lat="40.470721" lon="-4.232729">
        <ele>928.632</ele>
        <time>2021-02-18T08:26:10Z</time>
      </trkpt>
      <trkpt lat="40.472466" lon="-4.231995">
        <ele>957.005</ele>
        <time>2021-02-18T08:33:07Z</time>
      </trkpt>
      <trkpt lat="40.472732" lon="-4.231561">
        <ele>964.508</ele>
        <time>2021-02-18T08:38:13Z</time>
      </trkpt>
      <trkpt lat="40.472151" lon="-4.231694">
        <ele>967.787</ele>
        <time>2021-02-18T08:39:16Z</time>
      </trkpt>
      <trkpt lat="40.472766" lon="-4.230991">
        <ele>974.997</ele>
        <time>2021-02-18T08:40:40Z</time>
      </trkpt>
      <trkpt lat="40.474484" lon="-4.231588">
        <ele>995.221</ele>
        <time>2021-02-18T08:43:31Z</time>
      </trkpt>
      <trkpt lat="40.474990" lon="-4.231598">
        <ele>1005.564</ele>
        <time>2021-02-18T08:44:37Z</time>
      </trkpt>
      <trkpt lat="40.475318" lon="-4.231175">
        <ele>1015.849</ele>
        <time>2021-02-18T08:45:52Z</time>
      </trkpt>
      <trkpt lat="40.475889" lon="-4.231284">
        <ele>1027.722</ele>
        <time>2021-02-18T08:46:58Z</time>
      </trkpt>
      <trkpt lat="40.476186" lon="-4.231650">
        <ele>1036.882</ele>
        <time>2021-02-18T08:47:49Z</time>
      </trkpt>
      <trkpt lat="40.476106" lon="-4.231993">
        <ele>1042.310</ele>
        <time>2021-02-18T08:49:22Z</time>
      </trkpt>
      <trkpt lat="40.476636" lon="-4.232207">
        <ele>1044.434</ele>
        <time>2021-02-18T08:50:43Z</time>
      </trkpt>
      <trkpt lat="40.476930" lon="-4.232229">
        <ele>1039.255</ele>
        <time>2021-02-18T08:51:13Z</time>
      </trkpt>
      <trkpt lat="40.477477" lon="-4.231934">
        <ele>1027.610</ele>
        <time>2021-02-18T08:52:07Z</time>
      </trkpt>
      <trkpt lat="40.477569" lon="-4.232008">
        <ele>1025.308</ele>
        <time>2021-02-18T08:52:19Z</time>
      </trkpt>
      <trkpt lat="40.477704" lon="-4.233019">
        <ele>1006.569</ele>
        <time>2021-02-18T08:53:43Z</time>
      </trkpt>
      <trkpt lat="40.477503" lon="-4.233498">
        <ele>1003.699</ele>
        <time>2021-02-18T08:54:31Z</time>
      </trkpt>
      <trkpt lat="40.477018" lon="-4.234054">
        <ele>1009.063</ele>
        <time>2021-02-18T08:55:34Z</time>
      </trkpt>
      <trkpt lat="40.477038" lon="-4.234249">
        <ele>1008.936</ele>
        <time>2021-02-18T08:56:10Z</time>
      </trkpt>
      <trkpt lat="40.477799" lon="-4.237964">
        <ele>974.981</ele>
        <time>2021-02-18T09:01:28Z</time>
      </trkpt>
      <trkpt lat="40.477972" lon="-4.238124">
        <ele>967.644</ele>
        <time>2021-02-18T09:02:07Z</time>
      </trkpt>
      <trkpt lat="40.478247" lon="-4.238079">
        <ele>957.974</ele>
        <time>2022-04-22T16:53:27Z</time>
      </trkpt>
      <trkpt lat="40.478533" lon="-4.238497">
        <ele>946.572</ele>
        <time>2021-02-18T09:06:10Z</time>
      </trkpt>
      <trkpt lat="40.478592" lon="-4.239743">
        <ele>937.212</ele>
        <time>2021-02-18T09:07:58Z</time>
      </trkpt>
      <trkpt lat="40.478937" lon="-4.241387">
        <ele>916.732</ele>
        <time>2021-02-18T09:11:01Z</time>
      </trkpt>
      <trkpt lat="40.478077" lon="-4.241856">
        <ele>924.605</ele>
        <time>2021-02-18T09:12:25Z</time>
      </trkpt>
      <trkpt lat="40.477620" lon="-4.242456">
        <ele>929.808</ele>
        <time>2021-02-18T09:13:52Z</time>
      </trkpt>
      <trkpt lat="40.475488" lon="-4.244459">
        <ele>945.347</ele>
        <time>2021-02-18T09:17:34Z</time>
      </trkpt>
      <trkpt lat="40.472776" lon="-4.244602">
        <ele>957.717</ele>
        <time>2021-02-18T09:21:31Z</time>
      </trkpt>
      <trkpt lat="40.471699" lon="-4.245010">
        <ele>962.311</ele>
        <time>2021-02-18T09:23:04Z</time>
      </trkpt>
      <trkpt lat="40.471509" lon="-4.244688">
        <ele>968.844</ele>
        <time>2021-02-18T09:23:52Z</time>
      </trkpt>
      <trkpt lat="40.471152" lon="-4.244481">
        <ele>978.019</ele>
        <time>2021-02-18T09:24:37Z</time>
      </trkpt>
      <trkpt lat="40.470144" lon="-4.245753">
        <ele>989.742</ele>
        <time>2021-02-18T09:27:19Z</time>
      </trkpt>
      <trkpt lat="40.469026" lon="-4.246649">
        <ele>1004.222</ele>
        <time>2021-02-18T09:30:40Z</time>
      </trkpt>
      <trkpt lat="40.468234" lon="-4.247046">
        <ele>1006.180</ele>
        <time>2021-02-18T09:31:55Z</time>
      </trkpt>
      <trkpt lat="40.467333" lon="-4.247066">
        <ele>1008.634</ele>
        <time>2021-02-18T09:33:19Z</time>
      </trkpt>
      <trkpt lat="40.466172" lon="-4.246704">
        <ele>1008.455</ele>
        <time>2021-02-18T09:34:58Z</time>
      </trkpt>
      <trkpt lat="40.465560" lon="-4.246817">
        <ele>1012.510</ele>
        <time>2021-02-18T09:35:49Z</time>
      </trkpt>
      <trkpt lat="40.464970" lon="-4.247129">
        <ele>1023.708</ele>
        <time>2021-02-18T09:37:10Z</time>
      </trkpt>
      <trkpt lat="40.464482" lon="-4.247145">
        <ele>1026.159</ele>
        <time>2021-02-18T09:38:07Z</time>
      </trkpt>
      <trkpt lat="40.464358" lon="-4.247449">
        <ele>1026.159</ele>
        <time>2021-02-18T09:50:07Z</time>
      </trkpt>
      <trkpt lat="40.464206" lon="-4.247292">
        <ele>1028.743</ele>
        <time>2021-02-18T09:50:31Z</time>
      </trkpt>
      <trkpt lat="40.464062" lon="-4.247354">
        <ele>1033.266</ele>
        <time>2021-02-18T09:51:04Z</time>
      </trkpt>
      <trkpt lat="40.463776" lon="-4.248288">
        <ele>1052.481</ele>
        <time>2021-02-18T09:52:55Z</time>
      </trkpt>
      <trkpt lat="40.463493" lon="-4.248361">
        <ele>1065.514</ele>
        <time>2021-02-18T09:54:19Z</time>
      </trkpt>
      <trkpt lat="40.463248" lon="-4.248133">
        <ele>1073.764</ele>
        <time>2021-02-18T09:55:34Z</time>
      </trkpt>
      <trkpt lat="40.462751" lon="-4.248371">
        <ele>1085.912</ele>
        <time>2021-02-18T09:56:46Z</time>
      </trkpt>
      <trkpt lat="40.462427" lon="-4.249015">
        <ele>1103.398</ele>
        <time>2021-02-18T09:58:25Z</time>
      </trkpt>
      <trkpt lat="40.461669" lon="-4.249214">
        <ele>1113.215</ele>
        <time>2021-02-18T10:00:19Z</time>
      </trkpt>
      <trkpt lat="40.460140" lon="-4.250377">
        <ele>1120.226</ele>
        <time>2021-02-18T10:03:22Z</time>
      </trkpt>
      <trkpt lat="40.459635" lon="-4.251081">
        <ele>1131.908</ele>
        <time>2021-02-18T10:04:55Z</time>
      </trkpt>
      <trkpt lat="40.458835" lon="-4.251133">
        <ele>1131.855</ele>
        <time>2021-02-18T10:06:37Z</time>
      </trkpt>
      <trkpt lat="40.458005" lon="-4.250813">
        <ele>1132.645</ele>
        <time>2021-02-18T10:07:58Z</time>
      </trkpt>
      <trkpt lat="40.457636" lon="-4.250971">
        <ele>1130.259</ele>
        <time>2021-02-18T10:08:43Z</time>
      </trkpt>
      <trkpt lat="40.456833" lon="-4.250961">
        <ele>1130.032</ele>
        <time>2021-02-18T10:09:55Z</time>
      </trkpt>
      <trkpt lat="40.456244" lon="-4.251404">
        <ele>1125.767</ele>
        <time>2021-02-18T10:11:04Z</time>
      </trkpt>
      <trkpt lat="40.456070" lon="-4.251776">
        <ele>1117.450</ele>
        <time>2021-02-18T10:11:46Z</time>
      </trkpt>
      <trkpt lat="40.455618" lon="-4.251939">
        <ele>1106.970</ele>
        <time>2021-02-18T10:12:37Z</time>
      </trkpt>
      <trkpt lat="40.454880" lon="-4.252808">
        <ele>1099.778</ele>
        <time>2021-02-18T10:14:01Z</time>
      </trkpt>
      <trkpt lat="40.454141" lon="-4.252916">
        <ele>1111.981</ele>
        <time>2021-02-18T10:15:19Z</time>
      </trkpt>
      <trkpt lat="40.453536" lon="-4.253502">
        <ele>1133.561</ele>
        <time>2021-02-18T10:17:34Z</time>
      </trkpt>
      <trkpt lat="40.452759" lon="-4.253742">
        <ele>1145.517</ele>
        <time>2021-02-18T10:19:10Z</time>
      </trkpt>
      <trkpt lat="40.451567" lon="-4.253568">
        <ele>1151.308</ele>
        <time>2021-02-18T10:21:22Z</time>
      </trkpt>
      <trkpt lat="40.450713" lon="-4.254205">
        <ele>1181.494</ele>
        <time>2021-02-18T10:24:07Z</time>
      </trkpt>
      <trkpt lat="40.449944" lon="-4.254252">
        <ele>1190.294</ele>
        <time>2021-02-18T10:26:13Z</time>
      </trkpt>
      <trkpt lat="40.449428" lon="-4.255049">
        <ele>1207.588</ele>
        <time>2021-02-18T10:28:19Z</time>
      </trkpt>
      <trkpt lat="40.448798" lon="-4.255358">
        <ele>1226.591</ele>
        <time>2021-02-18T10:30:19Z</time>
      </trkpt>
      <trkpt lat="40.448989" lon="-4.255959">
        <ele>1248.616</ele>
        <time>2021-02-18T10:39:31Z</time>
      </trkpt>
      <trkpt lat="40.448807" lon="-4.255350">
        <ele>1226.119</ele>
        <time>2021-02-18T10:48:22Z</time>
      </trkpt>
      <trkpt lat="40.449446" lon="-4.255037">
        <ele>1207.469</ele>
        <time>2021-02-18T10:50:22Z</time>
      </trkpt>
      <trkpt lat="40.449967" lon="-4.254222">
        <ele>1189.157</ele>
        <time>2021-02-18T10:51:46Z</time>
      </trkpt>
      <trkpt lat="40.450692" lon="-4.254230">
        <ele>1183.728</ele>
        <time>2021-02-18T10:53:37Z</time>
      </trkpt>
      <trkpt lat="40.451559" lon="-4.253580">
        <ele>1151.889</ele>
        <time>2021-02-18T10:56:22Z</time>
      </trkpt>
      <trkpt lat="40.452720" lon="-4.253752">
        <ele>1146.117</ele>
        <time>2021-02-18T10:58:40Z</time>
      </trkpt>
      <trkpt lat="40.453653" lon="-4.253473">
        <ele>1131.008</ele>
        <time>2021-02-18T11:00:31Z</time>
      </trkpt>
      <trkpt lat="40.454250" lon="-4.252876">
        <ele>1108.798</ele>
        <time>2021-02-18T11:02:13Z</time>
      </trkpt>
      <trkpt lat="40.454898" lon="-4.252794">
        <ele>1099.868</ele>
        <time>2021-02-18T11:03:25Z</time>
      </trkpt>
      <trkpt lat="40.455660" lon="-4.251903">
        <ele>1107.922</ele>
        <time>2021-02-18T11:05:16Z</time>
      </trkpt>
      <trkpt lat="40.456109" lon="-4.251705">
        <ele>1119.495</ele>
        <time>2021-02-18T11:06:28Z</time>
      </trkpt>
      <trkpt lat="40.456755" lon="-4.251653">
        <ele>1122.430</ele>
        <time>2021-02-18T11:08:07Z</time>
      </trkpt>
      <trkpt lat="40.457418" lon="-4.250948">
        <ele>1130.063</ele>
        <time>2021-02-18T11:09:46Z</time>
      </trkpt>
      <trkpt lat="40.458033" lon="-4.250803">
        <ele>1132.893</ele>
        <time>2021-02-18T11:10:49Z</time>
      </trkpt>
      <trkpt lat="40.458707" lon="-4.251153">
        <ele>1132.131</ele>
        <time>2021-02-18T11:20:16Z</time>
      </trkpt>
      <trkpt lat="40.459519" lon="-4.251146">
        <ele>1134.296</ele>
        <time>2021-02-18T11:21:52Z</time>
      </trkpt>
      <trkpt lat="40.460134" lon="-4.250356">
        <ele>1120.131</ele>
        <time>2021-02-18T11:23:37Z</time>
      </trkpt>
      <trkpt lat="40.460350" lon="-4.250377">
        <ele>1116.724</ele>
        <time>2021-02-18T11:24:04Z</time>
      </trkpt>
      <trkpt lat="40.460406" lon="-4.250189">
        <ele>1113.708</ele>
        <time>2021-02-18T11:24:22Z</time>
      </trkpt>
      <trkpt lat="40.461678" lon="-4.249207">
        <ele>1113.255</ele>
        <time>2021-02-18T11:26:49Z</time>
      </trkpt>
      <trkpt lat="40.462425" lon="-4.248995">
        <ele>1103.325</ele>
        <time>2021-02-18T11:28:16Z</time>
      </trkpt>
      <trkpt lat="40.462735" lon="-4.248360">
        <ele>1086.219</ele>
        <time>2021-02-18T11:30:10Z</time>
      </trkpt>
      <trkpt lat="40.463198" lon="-4.248110">
        <ele>1074.672</ele>
        <time>2021-02-18T11:31:07Z</time>
      </trkpt>
      <trkpt lat="40.463462" lon="-4.248355">
        <ele>1066.767</ele>
        <time>2021-02-18T11:32:01Z</time>
      </trkpt>
      <trkpt lat="40.463730" lon="-4.248294">
        <ele>1054.640</ele>
        <time>2021-02-18T11:33:25Z</time>
      </trkpt>
      <trkpt lat="40.464029" lon="-4.247353">
        <ele>1034.410</ele>
        <time>2021-02-18T11:35:13Z</time>
      </trkpt>
      <trkpt lat="40.464156" lon="-4.247292">
        <ele>1029.688</ele>
        <time>2021-02-18T11:35:31Z</time>
      </trkpt>
      <trkpt lat="40.464305" lon="-4.247453">
        <ele>1027.179</ele>
        <time>2021-02-18T11:35:52Z</time>
      </trkpt>
      <trkpt lat="40.464343" lon="-4.247284">
        <ele>1026.905</ele>
        <time>2021-02-18T11:36:19Z</time>
      </trkpt>
      <trkpt lat="40.463593" lon="-4.246876">
        <ele>1020.925</ele>
        <time>2021-02-18T11:37:43Z</time>
      </trkpt>
      <trkpt lat="40.461454" lon="-4.246700">
        <ele>997.408</ele>
        <time>2021-02-18T11:41:28Z</time>
      </trkpt>
      <trkpt lat="40.461009" lon="-4.246782">
        <ele>994.213</ele>
        <time>2021-02-18T11:42:19Z</time>
      </trkpt>
      <trkpt lat="40.460249" lon="-4.246705">
        <ele>986.583</ele>
        <time>2021-02-18T11:44:37Z</time>
      </trkpt>
      <trkpt lat="40.459854" lon="-4.246503">
        <ele>977.187</ele>
        <time>2021-02-18T11:45:13Z</time>
      </trkpt>
      <trkpt lat="40.459188" lon="-4.246639">
        <ele>974.550</ele>
        <time>2021-02-18T11:46:22Z</time>
      </trkpt>
      <trkpt lat="40.458216" lon="-4.246565">
        <ele>964.495</ele>
        <time>2021-02-18T11:47:58Z</time>
      </trkpt>
      <trkpt lat="40.456463" lon="-4.246375">
        <ele>948.138</ele>
        <time>2021-02-18T11:50:40Z</time>
      </trkpt>
      <trkpt lat="40.455672" lon="-4.246090">
        <ele>937.998</ele>
        <time>2021-02-18T11:51:52Z</time>
      </trkpt>
      <trkpt lat="40.454403" lon="-4.247054">
        <ele>927.196</ele>
        <time>2021-02-18T11:53:52Z</time>
      </trkpt>
      <trkpt lat="40.453876" lon="-4.247213">
        <ele>921.674</ele>
        <time>2021-02-18T11:54:46Z</time>
      </trkpt>
      <trkpt lat="40.452538" lon="-4.246704">
        <ele>909.356</ele>
        <time>2021-02-18T11:56:52Z</time>
      </trkpt>
      <trkpt lat="40.451746" lon="-4.246562">
        <ele>904.021</ele>
        <time>2021-02-18T11:58:04Z</time>
      </trkpt>
      <trkpt lat="40.451367" lon="-4.246231">
        <ele>900.908</ele>
        <time>2021-02-18T11:58:46Z</time>
      </trkpt>
      <trkpt lat="40.450916" lon="-4.246171">
        <ele>900.583</ele>
        <time>2021-02-18T11:59:25Z</time>
      </trkpt>
      <trkpt lat="40.450732" lon="-4.245986">
        <ele>899.523</ele>
        <time>2021-02-18T11:59:46Z</time>
      </trkpt>
      <trkpt lat="40.450258" lon="-4.246091">
        <ele>898.057</ele>
        <time>2021-02-18T12:01:04Z</time>
      </trkpt>
      <trkpt lat="40.449568" lon="-4.245705">
        <ele>895.250</ele>
        <time>2021-02-18T12:03:01Z</time>
      </trkpt>
      <trkpt lat="40.448646" lon="-4.245933">
        <ele>889.015</ele>
        <time>2021-02-18T12:04:25Z</time>
      </trkpt>
      <trkpt lat="40.447313" lon="-4.246704">
        <ele>871.338</ele>
        <time>2021-02-18T12:07:04Z</time>
      </trkpt>
      <trkpt lat="40.446630" lon="-4.246535">
        <ele>862.858</ele>
        <time>2021-02-18T12:08:10Z</time>
      </trkpt>
      <trkpt lat="40.446442" lon="-4.246132">
        <ele>856.946</ele>
        <time>2021-02-18T12:08:58Z</time>
      </trkpt>
      <trkpt lat="40.446276" lon="-4.244707">
        <ele>844.473</ele>
        <time>2021-02-18T12:11:10Z</time>
      </trkpt>
      <trkpt lat="40.445725" lon="-4.244862">
        <ele>839.285</ele>
        <time>2021-02-18T12:12:07Z</time>
      </trkpt>
      <trkpt lat="40.445319" lon="-4.244758">
        <ele>834.813</ele>
        <time>2021-02-18T12:13:01Z</time>
      </trkpt>
      <trkpt lat="40.444597" lon="-4.245509">
        <ele>837.608</ele>
        <time>2021-02-18T12:14:28Z</time>
      </trkpt>
      <trkpt lat="40.443888" lon="-4.245357">
        <ele>831.153</ele>
        <time>2021-02-18T12:15:58Z</time>
      </trkpt>
    </trkseg>
  </trk>
</gpx>
